BEL6CT LEBL-EBBR
Flight info
| Callsign | BEL6CT |
|---|---|
| Flight time | 1h 43m |
| Altitude | 36000 |
| Route | OLOXO DCT OKABI DCT TOU DCT ADABI DCT BOKNO UN858 VANAD UN874 BAMES UT191 PODEM UN873 BAZOS DCT BELDI DCT VEKIN Z173 ARVOL |
| Aircraft | A320/M-SDE3FGHIRWY/LB1 |
Departure
| Time | 2026-05-06 15:02 |
|---|---|
| Airport | Josep Tarradellas Barcelona-El Prat Airport (LEBL) |
Arrival
| Time | 2026-05-06 16:45 |
|---|---|
| Airport | Brussels Airport (EBBR) |
| Time | Latitude | Longitude | Altitude | Speed | Heading |
|---|---|---|---|---|---|
| 2026-05-06 14:19 | 41.29100 | 2.07800 | 3 ft | 0 kts | 154° |
| 2026-05-06 14:20 | 41.29100 | 2.07799 | 3 ft | 0 kts | 154° |
| 2026-05-06 14:33 | 41.29101 | 2.07799 | 3 ft | 0 kts | 154° |
| 2026-05-06 14:48 | 41.29116 | 2.07789 | 3 ft | 4 kts | 154° |
| 2026-05-06 14:48 | 41.29135 | 2.07777 | 5 ft | 4 kts | 153° |
| 2026-05-06 14:48 | 41.29158 | 2.07759 | 3 ft | 4 kts | 134° |
| 2026-05-06 14:49 | 41.29167 | 2.07735 | 4 ft | 3 kts | 66° |
| 2026-05-06 14:49 | 41.29159 | 2.07711 | 5 ft | 0 kts | 65° |
| 2026-05-06 14:51 | 41.29159 | 2.07710 | 5 ft | 0 kts | 65° |
| 2026-05-06 14:52 | 41.29158 | 2.07710 | 5 ft | 0 kts | 65° |
| 2026-05-06 14:53 | 41.29159 | 2.07711 | 5 ft | 0 kts | 65° |
| 2026-05-06 14:53 | 41.29162 | 2.07721 | 5 ft | 2 kts | 65° |
| 2026-05-06 14:53 | 41.29169 | 2.07742 | 3 ft | 3 kts | 66° |
| 2026-05-06 14:54 | 41.29178 | 2.07769 | 4 ft | 3 kts | 66° |
| 2026-05-06 14:54 | 41.29189 | 2.07800 | 3 ft | 4 kts | 65° |
| 2026-05-06 14:54 | 41.29200 | 2.07832 | 3 ft | 4 kts | 65° |
| 2026-05-06 14:54 | 41.29233 | 2.07929 | 3 ft | 16 kts | 65° |
| 2026-05-06 14:55 | 41.29279 | 2.08060 | 3 ft | 15 kts | 66° |
| 2026-05-06 14:55 | 41.29318 | 2.08178 | 3 ft | 13 kts | 66° |
| 2026-05-06 14:55 | 41.29355 | 2.08281 | 4 ft | 12 kts | 65° |
| 2026-05-06 14:55 | 41.29364 | 2.08371 | 3 ft | 9 kts | 121° |
| 2026-05-06 14:56 | 41.29303 | 2.08419 | 4 ft | 13 kts | 156° |
| 2026-05-06 14:56 | 41.29214 | 2.08473 | 4 ft | 15 kts | 156° |
| 2026-05-06 14:56 | 41.29115 | 2.08533 | 4 ft | 16 kts | 155° |
| 2026-05-06 14:56 | 41.29016 | 2.08592 | 9 ft | 15 kts | 155° |
| 2026-05-06 14:57 | 41.28917 | 2.08652 | 8 ft | 16 kts | 155° |
| 2026-05-06 14:57 | 41.28863 | 2.08721 | 4 ft | 9 kts | 94° |
| 2026-05-06 14:57 | 41.28889 | 2.08809 | 3 ft | 13 kts | 64° |
| 2026-05-06 14:57 | 41.28933 | 2.08940 | 5 ft | 15 kts | 66° |
| 2026-05-06 14:58 | 41.28976 | 2.09062 | 3 ft | 14 kts | 65° |
| 2026-05-06 14:58 | 41.29014 | 2.09174 | 3 ft | 16 kts | 65° |
| 2026-05-06 14:58 | 41.29074 | 2.09348 | 3 ft | 22 kts | 65° |
| 2026-05-06 14:58 | 41.29137 | 2.09532 | 3 ft | 22 kts | 65° |
| 2026-05-06 14:59 | 41.29200 | 2.09717 | 4 ft | 22 kts | 65° |
| 2026-05-06 14:59 | 41.29265 | 2.09902 | 5 ft | 17 kts | 60° |
| 2026-05-06 14:59 | 41.29317 | 2.10020 | 3 ft | 14 kts | 64° |
| 2026-05-06 14:59 | 41.29355 | 2.10129 | 3 ft | 12 kts | 65° |
| 2026-05-06 15:00 | 41.29364 | 2.10231 | 3 ft | 10 kts | 112° |
| 2026-05-06 15:00 | 41.29308 | 2.10285 | 3 ft | 11 kts | 156° |
| 2026-05-06 15:00 | 41.29237 | 2.10313 | 5 ft | 11 kts | 188° |
| 2026-05-06 15:00 | 41.29193 | 2.10249 | 5 ft | 8 kts | 246° |
| 2026-05-06 15:01 | 41.29153 | 2.10131 | 6 ft | 32 kts | 245° |
| 2026-05-06 15:01 | 41.28952 | 2.09551 | 8 ft | 102 kts | 245° |
| 2026-05-06 15:01 | 41.28572 | 2.08451 | 11 ft | 156 kts | 245° |
| 2026-05-06 15:01 | 41.28093 | 2.07061 | 473 ft | 165 kts | 242° |
| 2026-05-06 15:02 | 41.27400 | 2.05898 | 1188 ft | 164 kts | 205° |
| 2026-05-06 15:02 | 41.26314 | 2.05467 | 1895 ft | 164 kts | 192° |
| 2026-05-06 15:02 | 41.25164 | 2.05228 | 2451 ft | 169 kts | 191° |
| 2026-05-06 15:02 | 41.23987 | 2.05006 | 3018 ft | 172 kts | 192° |
| 2026-05-06 15:03 | 41.22772 | 2.04750 | 3378 ft | 189 kts | 193° |
| 2026-05-06 15:03 | 41.21409 | 2.04433 | 3695 ft | 208 kts | 193° |
| 2026-05-06 15:03 | 41.19916 | 2.04071 | 4079 ft | 224 kts | 195° |
| 2026-05-06 15:03 | 41.18503 | 2.03263 | 4790 ft | 225 kts | 224° |
| 2026-05-06 15:04 | 41.17498 | 2.01644 | 5432 ft | 230 kts | 236° |
| 2026-05-06 15:04 | 41.16527 | 1.99933 | 6225 ft | 234 kts | 235° |
| 2026-05-06 15:04 | 41.15529 | 1.98218 | 7010 ft | 236 kts | 234° |
| 2026-05-06 15:04 | 41.14513 | 1.96487 | 7789 ft | 238 kts | 234° |
| 2026-05-06 15:05 | 41.13546 | 1.94693 | 8579 ft | 240 kts | 243° |
| 2026-05-06 15:05 | 41.12927 | 1.92603 | 9225 ft | 249 kts | 254° |
| 2026-05-06 15:05 | 41.12419 | 1.90383 | 9964 ft | 253 kts | 255° |
| 2026-05-06 15:05 | 41.11905 | 1.88134 | 10713 ft | 256 kts | 255° |
| 2026-05-06 15:06 | 41.11572 | 1.85835 | 11428 ft | 258 kts | 269° |
| 2026-05-06 15:06 | 41.11740 | 1.83435 | 11952 ft | 271 kts | 284° |
| 2026-05-06 15:06 | 41.12408 | 1.80984 | 12170 ft | 295 kts | 291° |
| 2026-05-06 15:06 | 41.13224 | 1.78368 | 12360 ft | 318 kts | 296° |
| 2026-05-06 15:07 | 41.14546 | 1.75883 | 12495 ft | 343 kts | 313° |
| 2026-05-06 15:07 | 41.16526 | 1.73950 | 12749 ft | 363 kts | 329° |
| 2026-05-06 15:07 | 41.18762 | 1.72321 | 13317 ft | 369 kts | 330° |
| 2026-05-06 15:07 | 41.21137 | 1.70952 | 13924 ft | 376 kts | 340° |
| 2026-05-06 15:08 | 41.23709 | 1.70166 | 14509 ft | 383 kts | 350° |
| 2026-05-06 15:08 | 41.26368 | 1.69740 | 15089 ft | 387 kts | 350° |
| 2026-05-06 15:08 | 41.29055 | 1.69320 | 15663 ft | 391 kts | 350° |
| 2026-05-06 15:08 | 41.31773 | 1.68899 | 16258 ft | 395 kts | 350° |
| 2026-05-06 15:09 | 41.34515 | 1.68476 | 16865 ft | 398 kts | 350° |
| 2026-05-06 15:09 | 41.37267 | 1.68054 | 17490 ft | 401 kts | 350° |
| 2026-05-06 15:09 | 41.40016 | 1.67632 | 18071 ft | 404 kts | 350° |
| 2026-05-06 15:09 | 41.42822 | 1.67197 | 18587 ft | 408 kts | 349° |
| 2026-05-06 15:10 | 41.45658 | 1.66752 | 19067 ft | 411 kts | 349° |
| 2026-05-06 15:10 | 41.48510 | 1.66300 | 19534 ft | 415 kts | 349° |
| 2026-05-06 15:10 | 41.51389 | 1.65845 | 19988 ft | 419 kts | 348° |
| 2026-05-06 15:10 | 41.54298 | 1.65387 | 20439 ft | 423 kts | 348° |
| 2026-05-06 15:11 | 41.57233 | 1.64928 | 20897 ft | 426 kts | 348° |
| 2026-05-06 15:11 | 41.60188 | 1.64461 | 21326 ft | 429 kts | 348° |
| 2026-05-06 15:11 | 41.63165 | 1.63992 | 21755 ft | 432 kts | 347° |
| 2026-05-06 15:11 | 41.66166 | 1.63519 | 22180 ft | 436 kts | 347° |
| 2026-05-06 15:12 | 41.69193 | 1.63047 | 22592 ft | 439 kts | 347° |
| 2026-05-06 15:12 | 41.72243 | 1.62573 | 22987 ft | 442 kts | 347° |
| 2026-05-06 15:12 | 41.75313 | 1.62095 | 23357 ft | 446 kts | 347° |
| 2026-05-06 15:12 | 41.78406 | 1.61613 | 23745 ft | 448 kts | 347° |
| 2026-05-06 15:13 | 41.81498 | 1.61130 | 24097 ft | 449 kts | 347° |
| 2026-05-06 15:13 | 41.84623 | 1.60637 | 24432 ft | 451 kts | 347° |
| 2026-05-06 15:13 | 41.87747 | 1.60141 | 24759 ft | 453 kts | 347° |
| 2026-05-06 15:13 | 41.90848 | 1.59650 | 25064 ft | 456 kts | 347° |
| 2026-05-06 15:14 | 41.94013 | 1.59151 | 25362 ft | 458 kts | 347° |
| 2026-05-06 15:14 | 41.97187 | 1.58647 | 25653 ft | 460 kts | 346° |
| 2026-05-06 15:14 | 42.00371 | 1.58141 | 25989 ft | 461 kts | 347° |
| 2026-05-06 15:14 | 42.03558 | 1.57636 | 26271 ft | 463 kts | 347° |
| 2026-05-06 15:15 | 42.06766 | 1.57128 | 26548 ft | 465 kts | 347° |
| 2026-05-06 15:15 | 42.09982 | 1.56619 | 26742 ft | 467 kts | 347° |
| 2026-05-06 15:15 | 42.13219 | 1.56106 | 26982 ft | 468 kts | 347° |
| 2026-05-06 15:15 | 42.16455 | 1.55590 | 27222 ft | 470 kts | 347° |
| 2026-05-06 15:16 | 42.19706 | 1.55069 | 27466 ft | 471 kts | 347° |
| 2026-05-06 15:16 | 42.22969 | 1.54546 | 27677 ft | 472 kts | 347° |
| 2026-05-06 15:16 | 42.26196 | 1.54031 | 27955 ft | 472 kts | 347° |
| 2026-05-06 15:16 | 42.29456 | 1.53516 | 28302 ft | 472 kts | 347° |
| 2026-05-06 15:17 | 42.32723 | 1.53001 | 28631 ft | 472 kts | 347° |
| 2026-05-06 15:17 | 42.35982 | 1.52485 | 29001 ft | 471 kts | 347° |
| 2026-05-06 15:17 | 42.39225 | 1.51967 | 29385 ft | 469 kts | 347° |
| 2026-05-06 15:17 | 42.42463 | 1.51448 | 29770 ft | 468 kts | 347° |
| 2026-05-06 15:18 | 42.45698 | 1.50930 | 30104 ft | 468 kts | 347° |
| 2026-05-06 15:18 | 42.48929 | 1.50407 | 30404 ft | 468 kts | 347° |
| 2026-05-06 15:18 | 42.52157 | 1.49885 | 30695 ft | 468 kts | 347° |
| 2026-05-06 15:18 | 42.55386 | 1.49364 | 30947 ft | 467 kts | 347° |
| 2026-05-06 15:19 | 42.58612 | 1.48840 | 31239 ft | 467 kts | 347° |
| 2026-05-06 15:19 | 42.61837 | 1.48317 | 31589 ft | 466 kts | 347° |
| 2026-05-06 15:19 | 42.65055 | 1.47799 | 31899 ft | 464 kts | 347° |
| 2026-05-06 15:19 | 42.68264 | 1.47286 | 32180 ft | 464 kts | 347° |
| 2026-05-06 15:20 | 42.71470 | 1.46773 | 32515 ft | 463 kts | 347° |
| 2026-05-06 15:20 | 42.74673 | 1.46260 | 32832 ft | 463 kts | 347° |
| 2026-05-06 15:20 | 42.77864 | 1.45748 | 33132 ft | 462 kts | 347° |
| 2026-05-06 15:20 | 42.81049 | 1.45236 | 33435 ft | 461 kts | 347° |
| 2026-05-06 15:21 | 42.84233 | 1.44724 | 33664 ft | 460 kts | 347° |
| 2026-05-06 15:21 | 42.87419 | 1.44207 | 33886 ft | 461 kts | 347° |
| 2026-05-06 15:21 | 42.90604 | 1.43689 | 34146 ft | 461 kts | 347° |
| 2026-05-06 15:21 | 42.93785 | 1.43172 | 34390 ft | 460 kts | 347° |
| 2026-05-06 15:22 | 42.95894 | 1.42830 | 34560 ft | 460 kts | 347° |
| 2026-05-06 15:22 | 42.99071 | 1.42316 | 34774 ft | 460 kts | 347° |
| 2026-05-06 15:22 | 43.02248 | 1.41803 | 34987 ft | 460 kts | 347° |
| 2026-05-06 15:22 | 43.06461 | 1.41121 | 35243 ft | 460 kts | 347° |
| 2026-05-06 15:23 | 43.08609 | 1.40772 | 35376 ft | 460 kts | 347° |
| 2026-05-06 15:23 | 43.11789 | 1.40252 | 35569 ft | 460 kts | 348° |
| 2026-05-06 15:23 | 43.14970 | 1.39733 | 35762 ft | 460 kts | 348° |
| 2026-05-06 15:23 | 43.18111 | 1.39218 | 35925 ft | 461 kts | 348° |
| 2026-05-06 15:24 | 43.21303 | 1.38694 | 35975 ft | 464 kts | 348° |
| 2026-05-06 15:24 | 43.27731 | 1.37643 | 35969 ft | 465 kts | 348° |
| 2026-05-06 15:25 | 43.34172 | 1.36581 | 35969 ft | 465 kts | 348° |
| 2026-05-06 15:25 | 43.40567 | 1.35528 | 35963 ft | 465 kts | 348° |
| 2026-05-06 15:26 | 43.46997 | 1.34471 | 35961 ft | 465 kts | 348° |
| 2026-05-06 15:26 | 43.53413 | 1.33411 | 35958 ft | 464 kts | 348° |
| 2026-05-06 15:27 | 43.59832 | 1.32348 | 35941 ft | 464 kts | 348° |
| 2026-05-06 15:27 | 43.66251 | 1.31274 | 35958 ft | 464 kts | 349° |
| 2026-05-06 15:28 | 43.72639 | 1.30002 | 35962 ft | 463 kts | 346° |
| 2026-05-06 15:28 | 43.78951 | 1.28319 | 35964 ft | 462 kts | 344° |
| 2026-05-06 15:29 | 43.85257 | 1.26555 | 35977 ft | 462 kts | 345° |
| 2026-05-06 15:29 | 43.91579 | 1.24884 | 35966 ft | 462 kts | 346° |
| 2026-05-06 15:30 | 43.97854 | 1.23285 | 35958 ft | 462 kts | 346° |
| 2026-05-06 15:30 | 44.04174 | 1.21660 | 35970 ft | 462 kts | 346° |
| 2026-05-06 15:31 | 44.10497 | 1.20005 | 35960 ft | 462 kts | 346° |
| 2026-05-06 15:31 | 44.16819 | 1.18344 | 35959 ft | 462 kts | 346° |
| 2026-05-06 15:32 | 44.26238 | 1.15879 | 35953 ft | 461 kts | 346° |
| 2026-05-06 15:32 | 44.32546 | 1.14220 | 35948 ft | 460 kts | 346° |
| 2026-05-06 15:33 | 44.38838 | 1.12571 | 35950 ft | 459 kts | 346° |
| 2026-05-06 15:33 | 44.45115 | 1.10923 | 35961 ft | 459 kts | 347° |
| 2026-05-06 15:34 | 44.51353 | 1.09272 | 35942 ft | 458 kts | 347° |
| 2026-05-06 15:34 | 44.57619 | 1.07621 | 35942 ft | 458 kts | 347° |
| 2026-05-06 15:35 | 44.63868 | 1.05958 | 35951 ft | 457 kts | 347° |
| 2026-05-06 15:35 | 44.70111 | 1.04291 | 35938 ft | 456 kts | 347° |
| 2026-05-06 15:36 | 44.76346 | 1.02633 | 35937 ft | 456 kts | 347° |
| 2026-05-06 15:36 | 44.82585 | 1.00975 | 35934 ft | 456 kts | 347° |
| 2026-05-06 15:37 | 44.88816 | 0.99306 | 35937 ft | 456 kts | 347° |
| 2026-05-06 15:37 | 44.95015 | 0.97636 | 35935 ft | 456 kts | 347° |
| 2026-05-06 15:38 | 45.01247 | 0.95954 | 35937 ft | 456 kts | 347° |
| 2026-05-06 15:38 | 45.07488 | 0.94274 | 35934 ft | 456 kts | 347° |
| 2026-05-06 15:39 | 45.13731 | 0.92587 | 35935 ft | 456 kts | 347° |
| 2026-05-06 15:39 | 45.19938 | 0.90915 | 35942 ft | 456 kts | 347° |
| 2026-05-06 15:40 | 45.26173 | 0.89236 | 35939 ft | 455 kts | 347° |
| 2026-05-06 15:40 | 45.32400 | 0.87541 | 35938 ft | 455 kts | 347° |
| 2026-05-06 15:41 | 45.38617 | 0.85841 | 35939 ft | 455 kts | 347° |
| 2026-05-06 15:41 | 45.44839 | 0.84140 | 35931 ft | 455 kts | 347° |
| 2026-05-06 15:42 | 45.51011 | 0.82450 | 35925 ft | 454 kts | 347° |
| 2026-05-06 15:42 | 45.57229 | 0.80741 | 35920 ft | 454 kts | 347° |
| 2026-05-06 15:43 | 45.63440 | 0.79030 | 35920 ft | 454 kts | 347° |
| 2026-05-06 15:43 | 45.69613 | 0.77333 | 35920 ft | 453 kts | 347° |
| 2026-05-06 15:44 | 45.75820 | 0.75622 | 35921 ft | 453 kts | 347° |
| 2026-05-06 15:44 | 45.82010 | 0.73909 | 35922 ft | 452 kts | 347° |
| 2026-05-06 15:45 | 45.88188 | 0.72196 | 35921 ft | 452 kts | 347° |
| 2026-05-06 15:45 | 45.94356 | 0.70433 | 35910 ft | 451 kts | 346° |
| 2026-05-06 15:46 | 46.00526 | 0.68691 | 35919 ft | 452 kts | 348° |
| 2026-05-06 15:46 | 46.06699 | 0.67019 | 35920 ft | 451 kts | 348° |
| 2026-05-06 15:47 | 46.12837 | 0.65335 | 35917 ft | 451 kts | 347° |
| 2026-05-06 15:47 | 46.18999 | 0.63598 | 35935 ft | 451 kts | 347° |
| 2026-05-06 15:48 | 46.25165 | 0.61861 | 35939 ft | 451 kts | 347° |
| 2026-05-06 15:48 | 46.31333 | 0.60119 | 35933 ft | 451 kts | 348° |
| 2026-05-06 15:49 | 46.37490 | 0.58377 | 35942 ft | 451 kts | 347° |
| 2026-05-06 15:49 | 46.43667 | 0.56626 | 35947 ft | 452 kts | 348° |
| 2026-05-06 15:50 | 46.49838 | 0.54875 | 35949 ft | 451 kts | 348° |
| 2026-05-06 15:50 | 46.56067 | 0.53727 | 35942 ft | 453 kts | 360° |
| 2026-05-06 15:51 | 46.62303 | 0.55107 | 35944 ft | 455 kts | 11° |
| 2026-05-06 15:51 | 46.68485 | 0.57150 | 35949 ft | 456 kts | 11° |
| 2026-05-06 15:52 | 46.74637 | 0.59192 | 35948 ft | 456 kts | 11° |
| 2026-05-06 15:52 | 46.80828 | 0.61238 | 35948 ft | 456 kts | 11° |
| 2026-05-06 15:53 | 46.87027 | 0.63290 | 35951 ft | 457 kts | 11° |
| 2026-05-06 15:53 | 46.93238 | 0.65336 | 35953 ft | 457 kts | 11° |
| 2026-05-06 15:54 | 46.99434 | 0.67407 | 35960 ft | 457 kts | 12° |
| 2026-05-06 15:54 | 47.05661 | 0.69259 | 35955 ft | 455 kts | 3° |
| 2026-05-06 15:55 | 47.11977 | 0.69933 | 35957 ft | 455 kts | 3° |
| 2026-05-06 15:55 | 47.18295 | 0.70587 | 35963 ft | 455 kts | 3° |
| 2026-05-06 15:56 | 47.24607 | 0.71245 | 35963 ft | 455 kts | 3° |
| 2026-05-06 15:56 | 47.30871 | 0.71906 | 35962 ft | 454 kts | 3° |
| 2026-05-06 15:57 | 47.37169 | 0.72568 | 35964 ft | 451 kts | 2° |
| 2026-05-06 15:57 | 47.43486 | 0.73216 | 35966 ft | 459 kts | 3° |
| 2026-05-06 15:58 | 47.49877 | 0.74185 | 35963 ft | 465 kts | 12° |
| 2026-05-06 15:58 | 47.56059 | 0.77051 | 35984 ft | 464 kts | 17° |
| 2026-05-06 15:59 | 47.62174 | 0.80065 | 35984 ft | 461 kts | 18° |
| 2026-05-06 15:59 | 47.68259 | 0.83061 | 35980 ft | 459 kts | 17° |
| 2026-05-06 16:00 | 47.74310 | 0.86044 | 35970 ft | 458 kts | 17° |
| 2026-05-06 16:00 | 47.80320 | 0.89019 | 35968 ft | 458 kts | 18° |
| 2026-05-06 16:01 | 47.86359 | 0.92034 | 35966 ft | 457 kts | 18° |
| 2026-05-06 16:01 | 47.92391 | 0.95085 | 35962 ft | 457 kts | 18° |
| 2026-05-06 16:02 | 47.98417 | 0.98136 | 35960 ft | 457 kts | 18° |
| 2026-05-06 16:02 | 48.04442 | 1.01197 | 35964 ft | 457 kts | 18° |
| 2026-05-06 16:03 | 48.10461 | 1.04262 | 35951 ft | 457 kts | 18° |
| 2026-05-06 16:03 | 48.16479 | 1.07336 | 35954 ft | 457 kts | 18° |
| 2026-05-06 16:04 | 48.22497 | 1.10411 | 35956 ft | 456 kts | 17° |
| 2026-05-06 16:04 | 48.28516 | 1.13472 | 35949 ft | 456 kts | 18° |
| 2026-05-06 16:05 | 48.34493 | 1.16520 | 35941 ft | 456 kts | 17° |
| 2026-05-06 16:05 | 48.40499 | 1.19583 | 35939 ft | 455 kts | 17° |
| 2026-05-06 16:06 | 48.46496 | 1.22659 | 35932 ft | 455 kts | 18° |
| 2026-05-06 16:06 | 48.52495 | 1.25753 | 35931 ft | 456 kts | 18° |
| 2026-05-06 16:07 | 48.58510 | 1.28851 | 35937 ft | 456 kts | 18° |
| 2026-05-06 16:07 | 48.64505 | 1.31864 | 35934 ft | 457 kts | 17° |
| 2026-05-06 16:08 | 48.70554 | 1.34881 | 35935 ft | 458 kts | 17° |
| 2026-05-06 16:08 | 48.76572 | 1.37914 | 35938 ft | 450 kts | 17° |
| 2026-05-06 16:09 | 48.82451 | 1.40911 | 35940 ft | 444 kts | 17° |
| 2026-05-06 16:09 | 48.88301 | 1.43897 | 35942 ft | 443 kts | 18° |
| 2026-05-06 16:10 | 48.94145 | 1.46882 | 35946 ft | 443 kts | 17° |
| 2026-05-06 16:10 | 49.00077 | 1.49206 | 35945 ft | 441 kts | 6° |
| 2026-05-06 16:11 | 49.06146 | 1.50603 | 35941 ft | 441 kts | 7° |
| 2026-05-06 16:11 | 49.12213 | 1.52020 | 35942 ft | 441 kts | 8° |
| 2026-05-06 16:12 | 49.18280 | 1.53459 | 35943 ft | 441 kts | 7° |
| 2026-05-06 16:12 | 49.24229 | 1.55496 | 35948 ft | 443 kts | 20° |
| 2026-05-06 16:13 | 49.27009 | 1.57540 | 35953 ft | 444 kts | 31° |
| 2026-05-06 16:13 | 49.29525 | 1.60280 | 35944 ft | 445 kts | 40° |
| 2026-05-06 16:13 | 49.34019 | 1.66809 | 35947 ft | 445 kts | 43° |
| 2026-05-06 16:14 | 49.37780 | 1.72317 | 35680 ft | 448 kts | 43° |
| 2026-05-06 16:14 | 49.42265 | 1.78877 | 35464 ft | 446 kts | 43° |
| 2026-05-06 16:15 | 49.44511 | 1.82167 | 35217 ft | 446 kts | 43° |
| 2026-05-06 16:15 | 49.46723 | 1.85416 | 34978 ft | 446 kts | 43° |
| 2026-05-06 16:15 | 49.48961 | 1.88713 | 34734 ft | 444 kts | 43° |
| 2026-05-06 16:15 | 49.51176 | 1.91988 | 34497 ft | 441 kts | 43° |
| 2026-05-06 16:16 | 49.53385 | 1.95253 | 34261 ft | 438 kts | 43° |
| 2026-05-06 16:16 | 49.55578 | 1.98498 | 34021 ft | 435 kts | 43° |
| 2026-05-06 16:16 | 49.57748 | 2.01711 | 33879 ft | 431 kts | 43° |
| 2026-05-06 16:16 | 49.59908 | 2.04921 | 33882 ft | 431 kts | 43° |
| 2026-05-06 16:17 | 49.64202 | 2.11304 | 33881 ft | 431 kts | 43° |
| 2026-05-06 16:17 | 49.68524 | 2.17740 | 33877 ft | 431 kts | 44° |
| 2026-05-06 16:18 | 49.72834 | 2.24194 | 33873 ft | 431 kts | 43° |
| 2026-05-06 16:18 | 49.77162 | 2.30679 | 33873 ft | 435 kts | 44° |
| 2026-05-06 16:19 | 49.81508 | 2.37223 | 33861 ft | 436 kts | 44° |
| 2026-05-06 16:19 | 49.85861 | 2.43769 | 33860 ft | 436 kts | 44° |
| 2026-05-06 16:20 | 49.90189 | 2.50300 | 33862 ft | 436 kts | 44° |
| 2026-05-06 16:20 | 49.94539 | 2.56882 | 33854 ft | 436 kts | 44° |
| 2026-05-06 16:21 | 49.98872 | 2.63458 | 33853 ft | 435 kts | 44° |
| 2026-05-06 16:21 | 50.03188 | 2.70042 | 33851 ft | 435 kts | 44° |
| 2026-05-06 16:22 | 50.05348 | 2.73344 | 33712 ft | 436 kts | 44° |
| 2026-05-06 16:22 | 50.07511 | 2.76651 | 33440 ft | 435 kts | 45° |
| 2026-05-06 16:22 | 50.09667 | 2.79946 | 33164 ft | 434 kts | 45° |
| 2026-05-06 16:22 | 50.11812 | 2.83229 | 32892 ft | 431 kts | 45° |
| 2026-05-06 16:23 | 50.13950 | 2.86507 | 32616 ft | 430 kts | 45° |
| 2026-05-06 16:23 | 50.16045 | 2.89725 | 32352 ft | 426 kts | 44° |
| 2026-05-06 16:23 | 50.18156 | 2.92969 | 32084 ft | 424 kts | 44° |
| 2026-05-06 16:23 | 50.20250 | 2.96196 | 31820 ft | 421 kts | 45° |
| 2026-05-06 16:24 | 50.22333 | 2.99411 | 31555 ft | 419 kts | 45° |
| 2026-05-06 16:24 | 50.24402 | 3.02610 | 31296 ft | 417 kts | 45° |
| 2026-05-06 16:24 | 50.26460 | 3.05790 | 31040 ft | 415 kts | 45° |
| 2026-05-06 16:24 | 50.28507 | 3.08959 | 30786 ft | 413 kts | 45° |
| 2026-05-06 16:25 | 50.30540 | 3.12109 | 30536 ft | 411 kts | 45° |
| 2026-05-06 16:25 | 50.32581 | 3.15229 | 30284 ft | 409 kts | 43° |
| 2026-05-06 16:25 | 50.34665 | 3.18240 | 30027 ft | 407 kts | 41° |
| 2026-05-06 16:25 | 50.36781 | 3.21159 | 29757 ft | 405 kts | 41° |
| 2026-05-06 16:26 | 50.38910 | 3.24034 | 29446 ft | 404 kts | 40° |
| 2026-05-06 16:26 | 50.41033 | 3.26904 | 28980 ft | 401 kts | 40° |
| 2026-05-06 16:26 | 50.43136 | 3.29749 | 28564 ft | 398 kts | 40° |
| 2026-05-06 16:26 | 50.45223 | 3.32589 | 28144 ft | 396 kts | 41° |
| 2026-05-06 16:27 | 50.47268 | 3.35399 | 27587 ft | 393 kts | 40° |
| 2026-05-06 16:27 | 50.49295 | 3.38211 | 26831 ft | 386 kts | 41° |
| 2026-05-06 16:27 | 50.51291 | 3.40992 | 26029 ft | 381 kts | 41° |
| 2026-05-06 16:27 | 50.53265 | 3.43736 | 25217 ft | 377 kts | 40° |
| 2026-05-06 16:28 | 50.55221 | 3.46433 | 24444 ft | 372 kts | 40° |
| 2026-05-06 16:28 | 50.57151 | 3.49113 | 23668 ft | 370 kts | 41° |
| 2026-05-06 16:28 | 50.59085 | 3.51808 | 23029 ft | 372 kts | 40° |
| 2026-05-06 16:28 | 50.61017 | 3.54511 | 22536 ft | 370 kts | 40° |
| 2026-05-06 16:29 | 50.62935 | 3.57204 | 22066 ft | 367 kts | 40° |
| 2026-05-06 16:29 | 50.64834 | 3.59876 | 21585 ft | 365 kts | 40° |
| 2026-05-06 16:29 | 50.66702 | 3.62501 | 21131 ft | 363 kts | 40° |
| 2026-05-06 16:29 | 50.68581 | 3.65141 | 20681 ft | 361 kts | 40° |
| 2026-05-06 16:30 | 50.70453 | 3.67767 | 20219 ft | 359 kts | 41° |
| 2026-05-06 16:30 | 50.71712 | 3.69536 | 19920 ft | 358 kts | 40° |
| 2026-05-06 16:30 | 50.74174 | 3.72998 | 19311 ft | 357 kts | 40° |
| 2026-05-06 16:30 | 50.76018 | 3.75604 | 18871 ft | 355 kts | 41° |
| 2026-05-06 16:31 | 50.77860 | 3.78212 | 18416 ft | 354 kts | 40° |
| 2026-05-06 16:31 | 50.79697 | 3.80809 | 17939 ft | 354 kts | 40° |
| 2026-05-06 16:31 | 50.81525 | 3.83390 | 17491 ft | 351 kts | 40° |
| 2026-05-06 16:31 | 50.83144 | 3.86258 | 17028 ft | 346 kts | 57° |
| 2026-05-06 16:32 | 50.84288 | 3.89531 | 16479 ft | 335 kts | 60° |
| 2026-05-06 16:32 | 50.85365 | 3.92777 | 15959 ft | 331 kts | 60° |
| 2026-05-06 16:32 | 50.86424 | 3.95997 | 15602 ft | 329 kts | 60° |
| 2026-05-06 16:32 | 50.87474 | 3.99210 | 15203 ft | 328 kts | 61° |
| 2026-05-06 16:33 | 50.88517 | 4.02412 | 14795 ft | 327 kts | 61° |
| 2026-05-06 16:33 | 50.89556 | 4.05613 | 14407 ft | 326 kts | 61° |
| 2026-05-06 16:33 | 50.90593 | 4.08806 | 14007 ft | 326 kts | 60° |
| 2026-05-06 16:34 | 50.92648 | 4.15132 | 13175 ft | 324 kts | 61° |
| 2026-05-06 16:34 | 50.93677 | 4.18306 | 12769 ft | 322 kts | 60° |
| 2026-05-06 16:34 | 50.94695 | 4.21457 | 12368 ft | 320 kts | 62° |
| 2026-05-06 16:34 | 50.95708 | 4.24593 | 11954 ft | 318 kts | 62° |
| 2026-05-06 16:35 | 50.96695 | 4.27653 | 11684 ft | 305 kts | 62° |
| 2026-05-06 16:35 | 50.97646 | 4.30604 | 11190 ft | 296 kts | 61° |
| 2026-05-06 16:35 | 50.98575 | 4.33483 | 10796 ft | 292 kts | 60° |
| 2026-05-06 16:35 | 50.99500 | 4.36358 | 10413 ft | 292 kts | 60° |
| 2026-05-06 16:36 | 51.00422 | 4.39233 | 10018 ft | 292 kts | 60° |
| 2026-05-06 16:36 | 51.01344 | 4.42105 | 9610 ft | 292 kts | 60° |
| 2026-05-06 16:36 | 51.02258 | 4.44953 | 9196 ft | 291 kts | 60° |
| 2026-05-06 16:36 | 51.03172 | 4.47814 | 8786 ft | 289 kts | 62° |
| 2026-05-06 16:37 | 51.04071 | 4.50636 | 8417 ft | 283 kts | 60° |
| 2026-05-06 16:37 | 51.04942 | 4.53385 | 8002 ft | 277 kts | 63° |
| 2026-05-06 16:37 | 51.05632 | 4.56256 | 7572 ft | 277 kts | 69° |
| 2026-05-06 16:37 | 51.06266 | 4.59095 | 7273 ft | 268 kts | 68° |
| 2026-05-06 16:38 | 51.06872 | 4.61801 | 6960 ft | 254 kts | 69° |
| 2026-05-06 16:38 | 51.07460 | 4.64414 | 6497 ft | 247 kts | 67° |
| 2026-05-06 16:38 | 51.08012 | 4.66943 | 6139 ft | 241 kts | 72° |
| 2026-05-06 16:38 | 51.08046 | 4.69583 | 5834 ft | 241 kts | 102° |
| 2026-05-06 16:39 | 51.07254 | 4.71916 | 5499 ft | 244 kts | 134° |
| 2026-05-06 16:39 | 51.05842 | 4.73354 | 5094 ft | 243 kts | 158° |
| 2026-05-06 16:39 | 51.04250 | 4.74282 | 4477 ft | 245 kts | 159° |
| 2026-05-06 16:39 | 51.02661 | 4.75195 | 4057 ft | 235 kts | 159° |
| 2026-05-06 16:40 | 51.01181 | 4.76042 | 3984 ft | 221 kts | 158° |
| 2026-05-06 16:40 | 50.99736 | 4.76843 | 3852 ft | 220 kts | 163° |
| 2026-05-06 16:40 | 50.98197 | 4.77062 | 3520 ft | 222 kts | 185° |
| 2026-05-06 16:40 | 50.96759 | 4.76431 | 3392 ft | 213 kts | 205° |
| 2026-05-06 16:41 | 50.95557 | 4.75109 | 3181 ft | 209 kts | 225° |
| 2026-05-06 16:41 | 50.94718 | 4.73270 | 2942 ft | 205 kts | 247° |
| 2026-05-06 16:41 | 50.94209 | 4.71162 | 2707 ft | 204 kts | 253° |
| 2026-05-06 16:41 | 50.93734 | 4.69080 | 2423 ft | 197 kts | 254° |
| 2026-05-06 16:42 | 50.93280 | 4.67097 | 2160 ft | 184 kts | 254° |
| 2026-05-06 16:42 | 50.92860 | 4.65264 | 1920 ft | 170 kts | 255° |
| 2026-05-06 16:42 | 50.92476 | 4.63591 | 1723 ft | 153 kts | 256° |
| 2026-05-06 16:42 | 50.92125 | 4.62058 | 1506 ft | 144 kts | 255° |
| 2026-05-06 16:43 | 50.91788 | 4.60584 | 1310 ft | 141 kts | 255° |
| 2026-05-06 16:43 | 50.91454 | 4.59128 | 1116 ft | 140 kts | 255° |
| 2026-05-06 16:43 | 50.91122 | 4.57678 | 916 ft | 139 kts | 254° |
| 2026-05-06 16:43 | 50.90789 | 4.56228 | 718 ft | 140 kts | 254° |
| 2026-05-06 16:44 | 50.90452 | 4.54748 | 531 ft | 144 kts | 252° |
| 2026-05-06 16:44 | 50.90106 | 4.53259 | 337 ft | 143 kts | 254° |
| 2026-05-06 16:44 | 50.89768 | 4.51791 | 174 ft | 135 kts | 252° |
| 2026-05-06 16:44 | 50.89503 | 4.50633 | 175 ft | 87 kts | 249° |
| 2026-05-06 16:45 | 50.89350 | 4.49971 | 177 ft | 36 kts | 250° |
| 2026-05-06 16:45 | 50.89339 | 4.49757 | 177 ft | 18 kts | 289° |
| 2026-05-06 16:45 | 50.89390 | 4.49630 | 170 ft | 3 kts | 307° |
| 2026-05-06 16:45 | 50.89394 | 4.49620 | 170 ft | 1 kts | 307° |
| 2026-05-06 16:46 | 50.89394 | 4.49619 | 170 ft | 0 kts | 307° |
| 2026-05-06 16:46 | 50.89394 | 4.49620 | 170 ft | 0 kts | 307° |
| 2026-05-06 16:46 | 50.89403 | 4.49602 | 169 ft | 7 kts | 307° |
| 2026-05-06 16:47 | 50.89443 | 4.49518 | 167 ft | 12 kts | 307° |
| 2026-05-06 16:47 | 50.89503 | 4.49395 | 164 ft | 16 kts | 308° |
| 2026-05-06 16:47 | 50.89543 | 4.49309 | 160 ft | 7 kts | 306° |
| 2026-05-06 16:47 | 50.89590 | 4.49244 | 156 ft | 12 kts | 348° |
| 2026-05-06 16:48 | 50.89695 | 4.49282 | 149 ft | 19 kts | 14° |
| 2026-05-06 16:48 | 50.89814 | 4.49331 | 142 ft | 17 kts | 14° |
| 2026-05-06 16:48 | 50.89945 | 4.49384 | 134 ft | 21 kts | 14° |
| 2026-05-06 16:48 | 50.90077 | 4.49438 | 126 ft | 17 kts | 14° |
| 2026-05-06 16:49 | 50.90202 | 4.49489 | 128 ft | 20 kts | 14° |
| 2026-05-06 16:49 | 50.90309 | 4.49532 | 123 ft | 11 kts | 14° |
| 2026-05-06 16:49 | 50.90367 | 4.49485 | 124 ft | 12 kts | 274° |
| 2026-05-06 16:49 | 50.90353 | 4.49376 | 123 ft | 8 kts | 282° |
| 2026-05-06 16:50 | 50.90385 | 4.49310 | 125 ft | 8 kts | 297° |
| 2026-05-06 16:50 | 50.90372 | 4.49220 | 122 ft | 12 kts | 246° |
| 2026-05-06 16:50 | 50.90337 | 4.49099 | 124 ft | 11 kts | 245° |
| 2026-05-06 16:50 | 50.90316 | 4.49024 | 121 ft | 11 kts | 245° |
| 2026-05-06 16:51 | 50.90277 | 4.48891 | 122 ft | 9 kts | 245° |
| 2026-05-06 16:51 | 50.90250 | 4.48796 | 122 ft | 12 kts | 245° |
| 2026-05-06 16:51 | 50.90217 | 4.48682 | 121 ft | 11 kts | 245° |
| 2026-05-06 16:51 | 50.90189 | 4.48585 | 124 ft | 9 kts | 245° |
| 2026-05-06 16:52 | 50.90181 | 4.48557 | 124 ft | 0 kts | 245° |
| 2026-05-06 16:52 | 50.90181 | 4.48556 | 124 ft | 0 kts | 245° |
| 2026-05-06 16:52 | 50.90180 | 4.48554 | 124 ft | 2 kts | 245° |
| 2026-05-06 16:53 | 50.90170 | 4.48519 | 123 ft | 3 kts | 245° |
| 2026-05-06 16:53 | 50.90162 | 4.48488 | 124 ft | 3 kts | 250° |
| 2026-05-06 16:53 | 50.90181 | 4.48441 | 123 ft | 9 kts | 335° |
| 2026-05-06 16:53 | 50.90217 | 4.48416 | 120 ft | 4 kts | 336° |
| 2026-05-06 16:54 | 50.90228 | 4.48408 | 120 ft | 0 kts | 335° |
| 2026-05-06 16:54 | 50.90230 | 4.48406 | 120 ft | 0 kts | 335° |